createdAt,value
2023-03-17T00:00:39.225Z,8.07
2023-03-17T00:03:06.895Z,8.03
2023-03-17T00:05:38.973Z,8.05
2023-03-17T00:08:12.925Z,7.97
2023-03-17T00:10:39.377Z,7.93
2023-03-17T00:13:06.790Z,7.89
2023-03-17T00:15:33.795Z,7.90
2023-03-17T00:18:00.278Z,7.83
2023-03-17T00:20:31.049Z,7.70
2023-03-17T00:23:01.080Z,7.84
2023-03-17T00:25:29.630Z,7.86
2023-03-17T00:27:58.387Z,7.78
2023-03-17T00:30:25.461Z,7.79
2023-03-17T00:32:55.642Z,7.81
2023-03-17T00:35:24.940Z,7.80
2023-03-17T00:37:53.611Z,7.72
2023-03-17T00:40:23.436Z,7.86
2023-03-17T00:42:52.223Z,7.75
2023-03-17T00:45:23.581Z,7.69
2023-03-17T00:47:52.377Z,7.76
2023-03-17T00:50:24.653Z,7.72
2023-03-17T00:52:54.186Z,7.68
2023-03-17T00:55:22.325Z,7.60
2023-03-17T00:57:50.054Z,7.58
2023-03-17T01:00:26.435Z,7.52
2023-03-17T01:02:54.892Z,7.54
2023-03-17T01:05:23.701Z,7.41
2023-03-17T01:07:54.253Z,7.49
2023-03-17T01:10:26.542Z,7.49
2023-03-17T01:12:55.541Z,7.48
2023-03-17T01:15:23.059Z,7.53
2023-03-17T01:17:50.664Z,7.55
2023-03-17T01:20:23.714Z,7.45
2023-03-17T01:22:50.855Z,7.45
2023-03-17T01:25:18.978Z,7.45
2023-03-17T01:27:47.010Z,7.42
2023-03-17T01:30:13.778Z,7.35
2023-03-17T01:32:40.284Z,7.40
2023-03-17T01:35:07.205Z,7.35
2023-03-17T01:37:33.671Z,7.35
2023-03-17T01:40:00.146Z,7.38
2023-03-17T01:42:27.043Z,7.38
2023-03-17T01:45:07.181Z,7.43
2023-03-17T01:47:34.127Z,7.47
2023-03-17T01:50:08.692Z,7.35
2023-03-17T01:52:38.280Z,7.41
2023-03-17T01:55:17.822Z,7.46
2023-03-17T01:57:51.480Z,7.46
2023-03-17T02:00:20.789Z,7.51
2023-03-17T02:02:50.484Z,7.46
2023-03-17T02:05:21.662Z,7.50
2023-03-17T02:07:48.459Z,7.44
2023-03-17T02:10:19.227Z,7.37
2023-03-17T02:12:48.380Z,7.43
2023-03-17T02:15:15.396Z,7.41
2023-03-17T02:17:42.384Z,7.43
2023-03-17T02:20:29.652Z,7.50
2023-03-17T02:22:57.329Z,7.55
2023-03-17T02:25:25.941Z,7.60
2023-03-17T02:27:57.146Z,7.60
2023-03-17T02:30:24.857Z,7.61
2023-03-17T02:32:51.863Z,7.62
2023-03-17T02:35:19.611Z,7.57
2023-03-17T02:37:47.015Z,7.64
2023-03-17T02:40:14.733Z,7.67
2023-03-17T02:42:42.028Z,7.60
2023-03-17T02:45:11.560Z,7.68
2023-03-17T02:47:38.391Z,7.54
2023-03-17T02:50:06.217Z,7.62
2023-03-17T02:52:32.846Z,7.69
2023-03-17T02:54:59.303Z,7.56
2023-03-17T02:57:25.966Z,7.60
2023-03-17T02:59:52.461Z,7.59
2023-03-17T03:02:18.949Z,7.47
2023-03-17T03:04:46.200Z,7.48
2023-03-17T03:07:12.658Z,7.49
2023-03-17T03:09:39.192Z,7.45
2023-03-17T03:12:06.042Z,7.34
2023-03-17T03:14:32.521Z,7.27
2023-03-17T03:16:59.642Z,7.22
2023-03-17T03:19:26.281Z,7.29
2023-03-17T03:21:52.844Z,7.20
2023-03-17T03:24:19.382Z,7.22
2023-03-17T03:26:45.876Z,7.23
2023-03-17T03:29:12.603Z,7.15
2023-03-17T03:31:39.154Z,7.10
2023-03-17T03:34:05.895Z,7.25
2023-03-17T03:36:32.371Z,7.19
2023-03-17T03:38:59.825Z,7.21
2023-03-17T03:41:27.250Z,7.14
2023-03-17T03:43:53.782Z,7.09
2023-03-17T03:46:20.386Z,7.13
2023-03-17T03:48:47.003Z,7.09
2023-03-17T03:51:13.439Z,7.12
2023-03-17T03:53:39.873Z,7.17
2023-03-17T03:56:06.935Z,7.12
2023-03-17T03:58:33.482Z,7.05
2023-03-17T04:01:04.472Z,7.13
2023-03-17T04:03:30.962Z,7.07
2023-03-17T04:05:57.727Z,7.08
2023-03-17T04:08:24.259Z,7.09
2023-03-17T04:10:50.711Z,7.20
2023-03-17T04:13:17.170Z,7.13
2023-03-17T04:15:43.631Z,7.10
2023-03-17T04:18:10.110Z,7.09
2023-03-17T04:20:36.846Z,7.09
2023-03-17T04:23:03.302Z,7.02
2023-03-17T04:25:30.311Z,7.12
2023-03-17T04:27:57.145Z,7.09
2023-03-17T04:30:23.878Z,7.12
2023-03-17T04:32:51.236Z,7.07
2023-03-17T04:35:20.816Z,7.03
2023-03-17T04:37:48.453Z,7.03
2023-03-17T04:40:16.780Z,7.04
2023-03-17T04:42:43.422Z,6.99
2023-03-17T04:45:14.081Z,6.95
2023-03-17T04:47:41.312Z,6.98
2023-03-17T04:50:08.953Z,6.90
2023-03-17T04:52:36.810Z,6.90
2023-03-17T04:55:04.414Z,7.00
2023-03-17T04:57:30.949Z,6.95
2023-03-17T04:59:57.641Z,7.04
2023-03-17T05:02:24.442Z,6.95
2023-03-17T05:04:50.953Z,6.92
2023-03-17T05:07:17.464Z,6.89
2023-03-17T05:09:43.964Z,6.88
2023-03-17T05:12:10.905Z,6.96
2023-03-17T05:14:37.465Z,6.85
2023-03-17T05:17:04.193Z,6.81
2023-03-17T05:19:30.683Z,6.95
2023-03-17T05:21:57.256Z,6.89
2023-03-17T05:24:24.286Z,6.81
2023-03-17T05:26:50.768Z,6.80
2023-03-17T05:29:17.326Z,6.73
2023-03-17T05:31:44.021Z,6.78
2023-03-17T05:34:10.557Z,6.82
2023-03-17T05:36:37.548Z,6.70
2023-03-17T05:39:05.111Z,6.69
2023-03-17T05:41:31.671Z,6.74
2023-03-17T05:43:58.187Z,6.77
2023-03-17T05:46:24.811Z,6.79
2023-03-17T05:48:51.303Z,6.74
2023-03-17T05:51:17.898Z,6.69
2023-03-17T05:53:44.448Z,6.61
2023-03-17T05:56:10.891Z,6.65
2023-03-17T05:58:37.341Z,6.73
2023-03-17T06:01:04.013Z,6.65
2023-03-17T06:03:30.627Z,6.72
2023-03-17T06:05:57.398Z,6.76
2023-03-17T06:08:23.911Z,6.83
2023-03-17T06:10:50.552Z,6.84
2023-03-17T06:13:17.129Z,6.98
2023-03-17T06:15:44.198Z,7.06
2023-03-17T06:18:10.796Z,7.08
2023-03-17T06:20:37.543Z,7.19
2023-03-17T06:23:05.831Z,7.35
2023-03-17T06:25:35.126Z,7.39
2023-03-17T06:28:03.948Z,7.43
2023-03-17T06:30:33.083Z,7.57
2023-03-17T06:33:00.463Z,7.65
2023-03-17T06:35:27.633Z,7.62
2023-03-17T06:37:54.826Z,7.64
2023-03-17T06:40:21.498Z,7.82
2023-03-17T06:42:48.361Z,7.83
2023-03-17T06:45:15.263Z,7.77
2023-03-17T06:47:41.809Z,7.79
2023-03-17T06:50:09.841Z,7.81
2023-03-17T06:52:37.324Z,7.96
2023-03-17T06:55:04.785Z,7.93
2023-03-17T06:57:31.764Z,8.08
2023-03-17T06:59:58.342Z,8.18
2023-03-17T07:02:24.964Z,8.39
2023-03-17T07:04:52.102Z,8.65
2023-03-17T07:07:20.322Z,8.69
2023-03-17T07:09:47.829Z,8.92
2023-03-17T07:12:14.543Z,9.22
2023-03-17T07:14:41.740Z,9.31
2023-03-17T07:17:12.841Z,9.66
2023-03-17T07:19:39.957Z,9.72
2023-03-17T07:22:07.190Z,9.68
2023-03-17T07:24:33.924Z,9.77
2023-03-17T07:27:00.528Z,9.51
2023-03-17T07:29:28.507Z,9.44
2023-03-17T07:31:55.181Z,9.45
2023-03-17T07:34:22.230Z,10.38
2023-03-17T07:36:48.845Z,10.92
2023-03-17T07:39:15.610Z,10.90
2023-03-17T07:41:42.817Z,11.22
2023-03-17T07:44:09.759Z,11.84
2023-03-17T07:46:36.842Z,12.03
2023-03-17T07:49:03.394Z,11.61
2023-03-17T07:51:30.132Z,11.25
2023-03-17T07:54:03.380Z,11.71
2023-03-17T07:56:31.019Z,12.25
2023-03-17T07:58:59.117Z,12.98
2023-03-17T08:01:26.808Z,13.21
2023-03-17T08:03:53.570Z,13.45
2023-03-17T08:06:20.379Z,13.63
2023-03-17T08:08:47.085Z,13.94
2023-03-17T08:11:14.311Z,14.21
2023-03-17T08:13:40.821Z,14.49
2023-03-17T08:16:08.084Z,14.98
2023-03-17T08:18:34.930Z,15.60
2023-03-17T08:21:02.085Z,15.93
2023-03-17T08:23:28.774Z,16.11
2023-03-17T08:26:00.176Z,15.38
2023-03-17T08:28:27.141Z,15.86
2023-03-17T08:30:54.477Z,16.30
2023-03-17T08:33:21.498Z,16.66
2023-03-17T08:35:48.425Z,16.12
2023-03-17T08:38:14.938Z,16.25
2023-03-17T08:40:42.718Z,16.65
2023-03-17T08:43:09.224Z,16.71
2023-03-17T08:45:35.890Z,17.50
2023-03-17T08:48:03.210Z,17.90
2023-03-17T08:50:30.843Z,18.29
2023-03-17T08:52:57.691Z,18.32
2023-03-17T08:55:24.237Z,17.82
2023-03-17T08:57:51.275Z,17.27
2023-03-17T09:00:20.529Z,17.23
2023-03-17T09:02:48.797Z,17.26
2023-03-17T09:05:16.878Z,16.98
2023-03-17T09:07:44.051Z,17.23
2023-03-17T09:10:11.602Z,17.00
2023-03-17T09:12:38.338Z,17.00
2023-03-17T09:15:07.712Z,16.26
2023-03-17T09:17:34.734Z,16.34
2023-03-17T09:20:01.249Z,16.19
2023-03-17T09:22:27.721Z,16.08
2023-03-17T09:24:54.250Z,15.96
2023-03-17T09:27:20.942Z,16.12
2023-03-17T09:29:47.490Z,16.14
2023-03-17T09:32:14.011Z,15.86
2023-03-17T09:34:40.629Z,16.25
2023-03-17T09:37:07.230Z,16.12
2023-03-17T09:39:34.192Z,15.91
2023-03-17T09:42:12.531Z,16.77
2023-03-17T09:45:06.499Z,16.81
2023-03-17T09:48:17.165Z,17.33
2023-03-17T09:50:55.816Z,17.82
2023-03-17T09:53:35.125Z,18.17
2023-03-17T09:56:23.318Z,18.43
2023-03-17T09:59:30.005Z,19.03
2023-03-17T10:01:57.117Z,19.31
2023-03-17T10:04:24.099Z,19.01
2023-03-17T10:06:51.953Z,19.35
2023-03-17T10:09:27.140Z,19.54
2023-03-17T10:12:27.787Z,19.09
2023-03-17T10:15:13.537Z,19.72
2023-03-17T10:17:42.226Z,19.84
2023-03-17T10:20:18.502Z,19.88
2023-03-17T10:22:48.296Z,19.70
2023-03-17T10:25:18.965Z,19.48
2023-03-17T10:27:53.089Z,19.69
2023-03-17T10:30:22.285Z,19.46
2023-03-17T10:32:50.238Z,19.45
2023-03-17T10:35:18.318Z,19.68
2023-03-17T10:37:47.724Z,20.18
2023-03-17T10:40:30.386Z,20.10
2023-03-17T10:43:11.133Z,20.33
2023-03-17T10:45:46.380Z,20.85
2023-03-17T10:48:18.686Z,21.47
2023-03-17T10:50:48.624Z,21.46
2023-03-17T10:53:28.349Z,21.27
2023-03-17T10:56:09.565Z,20.59
2023-03-17T10:58:41.651Z,20.48
2023-03-17T11:01:20.158Z,20.45
2023-03-17T11:03:47.931Z,19.71
2023-03-17T11:06:19.362Z,19.83
2023-03-17T11:08:54.823Z,20.41
2023-03-17T11:11:30.266Z,20.90
2023-03-17T11:14:13.439Z,21.63
2023-03-17T11:16:53.489Z,21.22
2023-03-17T11:19:31.151Z,20.89
2023-03-17T11:22:09.854Z,21.42
2023-03-17T11:24:46.668Z,21.56
2023-03-17T11:27:30.181Z,21.37
2023-03-17T11:30:37.105Z,20.58
2023-03-17T11:33:36.262Z,20.57
2023-03-17T11:36:41.234Z,20.32
2023-03-17T11:39:23.035Z,21.11
2023-03-17T11:42:13.845Z,21.07
2023-03-17T11:44:55.214Z,20.33
2023-03-17T11:48:00.990Z,20.49
2023-03-17T11:50:58.468Z,20.94
2023-03-17T11:53:45.479Z,20.73
2023-03-17T11:56:28.200Z,21.07
2023-03-17T11:59:06.417Z,21.48
2023-03-17T12:01:49.398Z,21.68
2023-03-17T12:04:35.022Z,21.33
2023-03-17T12:07:14.350Z,21.79
2023-03-17T12:09:50.230Z,22.21
2023-03-17T12:12:22.954Z,22.93
2023-03-17T12:14:52.345Z,23.12
2023-03-17T12:17:25.791Z,22.71
2023-03-17T12:19:57.167Z,22.53
2023-03-17T12:22:32.866Z,21.97
2023-03-17T12:25:16.442Z,20.94
2023-03-17T12:27:53.303Z,20.60
2023-03-17T12:30:33.104Z,20.27
2023-03-17T12:33:07.400Z,19.64
2023-03-17T12:35:36.870Z,19.33
2023-03-17T12:38:40.645Z,19.23
2023-03-17T12:41:37.669Z,19.50
2023-03-17T12:44:13.302Z,19.96
2023-03-17T12:47:07.482Z,20.75
2023-03-17T12:49:58.700Z,21.29
2023-03-17T12:52:45.414Z,21.38
2023-03-17T12:55:18.152Z,21.89
2023-03-17T12:57:47.934Z,22.42
2023-03-17T13:00:29.513Z,22.75
2023-03-17T13:03:26.287Z,23.24
2023-03-17T13:05:58.285Z,23.02
2023-03-17T13:08:31.201Z,22.79
2023-03-17T13:11:16.381Z,24.12
2023-03-17T13:13:59.326Z,24.65
2023-03-17T13:16:41.039Z,24.43
2023-03-17T13:19:24.992Z,23.65
2023-03-17T13:22:13.052Z,23.64
2023-03-17T13:24:47.333Z,23.54
2023-03-17T13:27:44.597Z,23.21
2023-03-17T13:30:25.833Z,22.93
2023-03-17T13:32:57.382Z,22.98
2023-03-17T13:35:53.083Z,23.17
2023-03-17T13:38:52.491Z,23.05
2023-03-17T13:41:29.508Z,22.83
2023-03-17T13:44:17.781Z,22.69
2023-03-17T13:46:47.038Z,22.54
2023-03-17T13:49:27.574Z,21.77
2023-03-17T13:52:07.487Z,21.77
2023-03-17T13:54:40.906Z,21.68
2023-03-17T13:57:25.642Z,21.64
2023-03-17T14:00:05.646Z,21.41
2023-03-17T14:02:36.428Z,21.27
2023-03-17T14:05:18.281Z,21.20
2023-03-17T14:07:50.925Z,21.25
2023-03-17T14:10:21.772Z,21.01
2023-03-17T14:13:17.062Z,21.00
2023-03-17T14:16:04.305Z,20.92
2023-03-17T14:18:40.343Z,20.79
2023-03-17T14:21:19.269Z,20.83
2023-03-17T14:23:56.268Z,20.63
2023-03-17T14:26:30.764Z,20.62
2023-03-17T14:29:02.761Z,20.51
2023-03-17T14:31:30.022Z,20.62
2023-03-17T14:34:00.931Z,20.78
2023-03-17T14:36:32.439Z,20.75
2023-03-17T14:38:58.946Z,20.86
2023-03-17T14:41:27.449Z,21.00
2023-03-17T14:43:58.926Z,20.94
2023-03-17T14:46:30.602Z,20.93
2023-03-17T14:49:14.333Z,20.68
2023-03-17T14:51:42.065Z,20.58
2023-03-17T14:54:18.269Z,20.85
2023-03-17T14:56:50.950Z,20.71
2023-03-17T14:59:23.628Z,20.50
2023-03-17T15:01:55.344Z,20.52
2023-03-17T15:04:28.629Z,20.59
2023-03-17T15:06:57.649Z,20.62
2023-03-17T15:09:34.819Z,20.38
2023-03-17T15:12:16.189Z,20.43
2023-03-17T15:14:45.503Z,20.37
2023-03-17T15:17:33.771Z,20.10
2023-03-17T15:20:14.099Z,19.98
2023-03-17T15:22:57.453Z,19.86
2023-03-17T15:25:27.770Z,19.77
2023-03-17T15:27:55.870Z,19.73
2023-03-17T15:30:22.631Z,19.76
2023-03-17T15:33:00.569Z,19.60
2023-03-17T15:35:27.662Z,19.50
2023-03-17T15:37:54.973Z,19.40
2023-03-17T15:40:21.607Z,19.23
2023-03-17T15:42:49.374Z,19.13
2023-03-17T15:45:17.028Z,19.13
2023-03-17T15:47:45.410Z,18.96
2023-03-17T15:50:14.787Z,18.89
2023-03-17T15:52:41.307Z,18.87
2023-03-17T15:55:35.347Z,18.87
2023-03-17T15:58:01.831Z,18.84
2023-03-17T16:00:30.120Z,18.80
2023-03-17T16:03:01.362Z,18.77
2023-03-17T16:05:31.190Z,18.73
2023-03-17T16:07:57.800Z,18.68
2023-03-17T16:10:26.852Z,18.61
2023-03-17T16:12:53.699Z,18.69
2023-03-17T16:15:26.524Z,18.54
2023-03-17T16:17:58.368Z,18.36
2023-03-17T16:20:27.259Z,18.36
2023-03-17T16:22:56.004Z,18.41
2023-03-17T16:25:31.547Z,18.35
2023-03-17T16:28:05.166Z,18.23
2023-03-17T16:30:34.433Z,18.07
2023-03-17T16:33:03.974Z,18.10
2023-03-17T16:35:30.616Z,17.98
2023-03-17T16:37:57.176Z,17.87
2023-03-17T16:40:33.355Z,17.85
2023-03-17T16:43:00.361Z,17.65
2023-03-17T16:45:29.866Z,17.63
2023-03-17T16:47:57.264Z,17.62
2023-03-17T16:50:26.688Z,17.58
2023-03-17T16:52:53.487Z,17.46
2023-03-17T16:55:21.909Z,17.35
2023-03-17T16:57:51.810Z,17.25
2023-03-17T17:00:22.139Z,17.17
2023-03-17T17:02:49.866Z,17.11
2023-03-17T17:05:17.767Z,17.05
2023-03-17T17:07:44.359Z,16.98
2023-03-17T17:10:13.107Z,16.91
2023-03-17T17:12:40.827Z,16.73
2023-03-17T17:15:08.315Z,16.65
2023-03-17T17:17:36.876Z,16.64
2023-03-17T17:20:04.714Z,16.73
2023-03-17T17:22:31.177Z,16.78
2023-03-17T17:24:57.609Z,16.69
2023-03-17T17:27:24.177Z,16.59
2023-03-17T17:29:50.753Z,16.51
2023-03-17T17:32:19.031Z,16.28
2023-03-17T17:34:45.493Z,16.06
2023-03-17T17:37:12.536Z,15.83
2023-03-17T17:39:39.107Z,15.69
2023-03-17T17:42:05.917Z,15.57
2023-03-17T17:44:32.379Z,15.44
2023-03-17T17:46:58.888Z,15.39
2023-03-17T17:49:25.633Z,15.31
2023-03-17T17:51:52.091Z,15.29
2023-03-17T17:54:18.578Z,15.35
2023-03-17T17:56:46.920Z,15.26
2023-03-17T17:59:14.590Z,15.33
2023-03-17T18:01:41.416Z,15.16
2023-03-17T18:04:09.579Z,15.02
2023-03-17T18:06:36.218Z,15.04
2023-03-17T18:09:02.863Z,14.95
2023-03-17T18:11:29.474Z,14.75
2023-03-17T18:13:55.969Z,14.65
2023-03-17T18:16:24.217Z,14.73
2023-03-17T18:18:51.038Z,14.83
2023-03-17T18:21:17.743Z,14.95
2023-03-17T18:23:47.224Z,15.07
2023-03-17T18:26:16.461Z,14.99
2023-03-17T18:28:44.003Z,15.09
2023-03-17T18:31:16.510Z,14.99
2023-03-17T18:33:45.120Z,14.82
2023-03-17T18:36:12.136Z,14.67
2023-03-17T18:38:38.870Z,14.55
2023-03-17T18:41:07.237Z,14.45
2023-03-17T18:43:34.122Z,14.29
2023-03-17T18:46:00.687Z,14.16
2023-03-17T18:48:27.280Z,14.18
2023-03-17T18:50:53.913Z,14.16
2023-03-17T18:53:20.492Z,14.08
2023-03-17T18:55:47.142Z,14.01
2023-03-17T18:58:13.665Z,13.90
2023-03-17T19:00:40.456Z,13.85
2023-03-17T19:03:07.094Z,13.82
2023-03-17T19:05:38.181Z,13.72
2023-03-17T19:08:04.797Z,13.70
2023-03-17T19:10:31.783Z,13.66
2023-03-17T19:12:58.881Z,13.64
2023-03-17T19:15:26.063Z,13.72
2023-03-17T19:17:52.971Z,13.60
2023-03-17T19:20:20.038Z,13.65
2023-03-17T19:22:46.523Z,13.76
2023-03-17T19:25:13.089Z,13.73
2023-03-17T19:27:40.064Z,13.57
2023-03-17T19:30:07.231Z,13.39
2023-03-17T19:32:33.724Z,13.41
2023-03-17T19:35:00.423Z,13.21
2023-03-17T19:37:27.066Z,13.10
2023-03-17T19:39:53.593Z,12.98
2023-03-17T19:42:20.118Z,12.97
2023-03-17T19:44:46.639Z,12.96
2023-03-17T19:47:13.143Z,12.86
2023-03-17T19:49:39.665Z,12.74
2023-03-17T19:52:07.701Z,12.94
2023-03-17T19:54:35.164Z,12.73
2023-03-17T19:57:01.627Z,12.69
2023-03-17T19:59:28.105Z,12.62
2023-03-17T20:01:54.727Z,12.57
2023-03-17T20:04:23.109Z,12.43
2023-03-17T20:06:55.178Z,12.58
2023-03-17T20:09:26.266Z,12.52
2023-03-17T20:11:53.967Z,12.51
2023-03-17T20:14:20.946Z,12.40
2023-03-17T20:16:47.910Z,12.62
2023-03-17T20:19:15.771Z,12.72
2023-03-17T20:21:42.564Z,12.64
2023-03-17T20:24:12.285Z,12.49
2023-03-17T20:26:39.687Z,12.50
2023-03-17T20:29:06.559Z,12.40
2023-03-17T20:31:33.904Z,12.29
2023-03-17T20:34:00.548Z,12.17
2023-03-17T20:36:27.383Z,12.22
2023-03-17T20:38:54.518Z,12.07
2023-03-17T20:41:21.200Z,12.00
2023-03-17T20:43:48.197Z,11.80
2023-03-17T20:46:20.598Z,11.78
2023-03-17T20:48:48.305Z,11.54
2023-03-17T20:51:16.822Z,11.47
2023-03-17T20:53:44.894Z,11.37
2023-03-17T20:56:15.672Z,11.48
2023-03-17T20:58:43.592Z,11.56
2023-03-17T21:01:12.804Z,11.57
2023-03-17T21:03:40.492Z,11.50
2023-03-17T21:06:07.521Z,11.52
2023-03-17T21:08:34.361Z,11.50
2023-03-17T21:11:02.440Z,11.36
2023-03-17T21:13:29.740Z,11.42
2023-03-17T21:15:56.731Z,11.62
2023-03-17T21:18:23.728Z,11.64
2023-03-17T21:20:50.906Z,11.66
2023-03-17T21:23:17.493Z,11.61
2023-03-17T21:25:44.059Z,11.50
2023-03-17T21:28:11.229Z,11.70
2023-03-17T21:30:37.798Z,11.82
2023-03-17T21:33:04.634Z,11.86
2023-03-17T21:35:34.590Z,12.03
2023-03-17T21:38:01.987Z,11.99
2023-03-17T21:40:31.080Z,11.98
2023-03-17T21:43:00.794Z,11.97
2023-03-17T21:45:28.470Z,11.75
2023-03-17T21:47:55.141Z,11.60
2023-03-17T21:50:21.799Z,11.43
2023-03-17T21:52:48.784Z,11.38
2023-03-17T21:55:15.827Z,11.26
2023-03-17T21:57:42.449Z,11.13
2023-03-17T22:00:10.548Z,11.05
2023-03-17T22:02:37.849Z,10.89
2023-03-17T22:05:05.664Z,11.02
2023-03-17T22:07:32.956Z,10.89
2023-03-17T22:10:00.887Z,10.72
2023-03-17T22:12:27.641Z,10.55
2023-03-17T22:14:57.946Z,10.63
2023-03-17T22:17:25.787Z,10.72
2023-03-17T22:19:53.219Z,10.58
2023-03-17T22:22:21.058Z,10.52
2023-03-17T22:24:48.297Z,10.54
2023-03-17T22:27:17.111Z,10.48
2023-03-17T22:29:44.309Z,10.59
2023-03-17T22:32:11.051Z,10.46
2023-03-17T22:34:37.708Z,10.37
2023-03-17T22:37:05.147Z,10.42
2023-03-17T22:39:31.696Z,10.40
2023-03-17T22:41:58.211Z,10.38
2023-03-17T22:44:24.771Z,10.83
2023-03-17T22:46:51.284Z,10.78
2023-03-17T22:49:17.878Z,10.42
2023-03-17T22:51:45.956Z,10.67
2023-03-17T22:54:13.181Z,10.59
2023-03-17T22:56:39.805Z,10.61
2023-03-17T22:59:06.714Z,10.64
2023-03-17T23:01:33.387Z,10.52
2023-03-17T23:03:59.918Z,10.58
2023-03-17T23:06:26.645Z,10.38
2023-03-17T23:08:53.368Z,10.37
2023-03-17T23:11:23.134Z,10.29
2023-03-17T23:13:51.370Z,10.28
2023-03-17T23:16:18.956Z,10.23
2023-03-17T23:18:46.986Z,10.27
2023-03-17T23:21:23.062Z,10.13
2023-03-17T23:23:49.894Z,10.12
2023-03-17T23:26:16.866Z,10.11
2023-03-17T23:28:44.900Z,10.05
2023-03-17T23:31:11.447Z,10.04
2023-03-17T23:33:38.775Z,9.95
2023-03-17T23:36:05.946Z,9.85
2023-03-17T23:38:32.486Z,9.99
2023-03-17T23:40:59.146Z,10.11
2023-03-17T23:43:26.076Z,10.07
2023-03-17T23:45:53.915Z,10.10
2023-03-17T23:48:21.217Z,10.32
2023-03-17T23:50:51.584Z,10.32
2023-03-17T23:53:19.079Z,10.38
2023-03-17T23:55:45.742Z,10.42
2023-03-17T23:58:13.780Z,10.32
